Time;durP1;ratioP1;P1;durP2;ratioP2;P2;SDS_P1;SDS_P2;PMS_P1;PMS_P2;Temp;Humidity;BMP_temperature;BMP_pressure;BME280_temperature;BME280_humidity;BME280_pressure;Samples;Min_cycle;Max_cycle;Signal;HPM_P1;HPM_P2
2022/01/14 00:00:15;;;;;;;3.97;1.50;;;18.80;57.70;;;;;;5092187;28;20315;-83
2022/01/14 00:02:41;;;;;;;2.58;1.25;;;18.80;57.70;;;;;;5075173;28;20172;-83
2022/01/14 00:05:07;;;;;;;3.75;1.42;;;18.80;57.60;;;;;;5075009;28;20259;-83
2022/01/14 00:07:32;;;;;;;5.90;1.65;;;18.80;57.60;;;;;;5075388;28;20187;-83
2022/01/14 00:09:58;;;;;;;3.70;1.40;;;18.80;57.80;;;;;;5075145;28;20156;-83
2022/01/14 00:12:27;;;;;;;4.40;1.20;;;18.90;57.80;;;;;;5058519;28;20176;-83
2022/01/14 00:15:22;;;;;;;5.15;1.45;;;18.80;57.70;;;;;;5075688;28;20180;-83
2022/01/14 00:17:39;;;;;;;3.17;1.45;;;18.80;57.70;;;;;;5077952;28;20722;-83
2022/01/14 00:20:05;;;;;;;4.45;1.88;;;18.80;57.70;;;;;;5075399;28;20230;-83
2022/01/14 00:22:31;;;;;;;3.83;1.40;;;18.80;57.80;;;;;;5093116;28;20168;-83
2022/01/14 00:33:05;;;;;;;4.90;1.50;;;18.70;57.80;;;;;;5081348;28;20149;-83
2022/01/14 00:35:31;;;;;;;3.83;1.33;;;18.80;57.60;;;;;;5079558;28;20230;-83
2022/01/14 00:37:57;;;;;;;3.00;1.30;;;18.70;57.60;;;;;;5079379;28;20149;-83
2022/01/14 00:40:23;;;;;;;3.38;1.52;;;18.70;57.70;;;;;;5078898;28;20161;-83
2022/01/14 00:42:48;;;;;;;5.55;1.42;;;18.70;57.70;;;;;;5078564;28;20164;-83
2022/01/14 00:45:14;;;;;;;2.83;1.48;;;18.70;57.70;;;;;;5078569;28;20235;-83
2022/01/14 00:47:40;;;;;;;4.97;1.42;;;18.70;57.50;;;;;;5078352;28;20681;-84
2022/01/14 00:50:08;;;;;;;2.65;1.35;;;18.70;57.60;;;;;;5078561;28;20157;-83
2022/01/14 00:52:34;;;;;;;2.15;1.50;;;18.60;57.60;;;;;;5078682;28;20653;-84
2022/01/14 00:55:00;;;;;;;3.40;1.70;;;18.70;57.60;;;;;;5096609;28;20189;-83
2022/01/14 00:59:14;;;;;;;6.28;1.50;;;18.70;57.60;;;;;;5078694;28;20195;-83
2022/01/14 01:00:11;;;;;;;3.75;1.73;;;18.70;57.50;;;;;;5080931;28;20711;-83
2022/01/14 01:02:37;;;;;;;4.68;1.50;;;18.70;57.60;;;;;;5078330;28;20194;-84
2022/01/14 01:05:03;;;;;;;2.78;1.40;;;18.70;57.90;;;;;;5078108;28;20218;-84
2022/01/14 01:07:29;;;;;;;3.47;1.27;;;18.70;57.60;;;;;;5095170;28;20236;-84
2022/01/14 01:09:54;;;;;;;2.63;1.30;;;18.70;57.80;;;;;;5078314;28;20611;-84
2022/01/14 01:12:33;;;;;;;2.22;1.35;;;18.70;57.50;;;;;;5095049;28;20241;-84
2022/01/14 01:15:05;;;;;;;2.58;1.30;;;18.70;57.70;;;;;;5080431;28;20569;-83
2022/01/14 01:17:32;;;;;;;3.55;1.50;;;18.60;57.70;;;;;;5079107;28;20176;-84
2022/01/14 01:19:58;;;;;;;5.78;1.50;;;18.70;57.70;;;;;;5094767;28;20575;-83
2022/01/14 01:22:24;;;;;;;4.97;1.42;;;18.60;57.70;;;;;;5077979;28;20692;-83
2022/01/14 01:24:49;;;;;;;4.40;1.40;;;18.70;58.60;;;;;;5060922;28;20192;-83
2022/01/14 01:27:17;;;;;;;4.10;1.30;;;18.60;57.70;;;;;;5095081;28;20531;-83
2022/01/14 01:29:53;;;;;;;3.60;1.23;;;18.60;57.80;;;;;;5094961;28;20615;-83
2022/01/14 01:32:19;;;;;;;3.55;1.40;;;18.60;57.70;;;;;;5095093;28;20175;-84
2022/01/14 01:34:44;;;;;;;2.72;1.27;;;18.60;57.90;;;;;;5094591;28;20141;-83
2022/01/14 01:37:10;;;;;;;5.63;1.77;;;18.60;57.80;;;;;;5077704;28;20156;-83
2022/01/14 01:39:36;;;;;;;2.88;1.42;;;18.60;57.90;;;;;;5094199;28;20149;-84
2022/01/14 01:42:05;;;;;;;2.85;1.30;;;18.60;57.80;;;;;;5094229;28;20165;-83
2022/01/14 01:44:31;;;;;;;3.72;1.10;;;18.60;57.70;;;;;;5094394;28;20177;-84
2022/01/14 01:46:57;;;;;;;4.28;1.52;;;18.60;57.90;;;;;;5077623;28;20160;-83
2022/01/14 01:49:24;;;;;;;3.50;1.40;;;18.60;57.80;;;;;;5077460;28;20232;-83
2022/01/14 01:51:50;;;;;;;3.05;1.60;;;18.60;57.90;;;;;;5094333;28;20165;-84
2022/01/14 01:54:16;;;;;;;2.63;1.45;;;18.60;57.80;;;;;;5077497;28;20160;-83
2022/01/14 01:56:42;;;;;;;3.22;1.40;;;18.60;57.60;;;;;;5094135;28;20172;-84
2022/01/14 01:59:09;;;;;;;3.40;1.30;;;18.60;57.70;;;;;;5094099;28;20161;-84
2022/01/14 02:01:37;;;;;;;2.75;1.17;;;18.60;57.90;;;;;;5094072;28;20686;-83
2022/01/14 02:04:03;;;;;;;4.93;1.50;;;18.60;58.00;;;;;;5093989;28;20211;-83
2022/01/14 02:06:28;;;;;;;3.78;1.33;;;18.60;57.70;;;;;;5077436;28;20184;-84
2022/01/14 02:08:54;;;;;;;3.15;1.33;;;18.60;57.80;;;;;;5077005;28;20169;-83
2022/01/14 02:11:20;;;;;;;4.82;1.65;;;18.60;57.80;;;;;;5077034;28;20163;-83
2022/01/14 02:13:46;;;;;;;2.42;1.40;;;18.60;57.90;;;;;;5076976;28;20226;-83
2022/01/14 02:16:19;;;;;;;3.83;1.55;;;18.60;57.70;;;;;;5076829;28;20157;-83
2022/01/14 02:19:10;;;;;;;4.00;1.50;;;18.60;57.90;;;;;;5093752;28;20157;-83
2022/01/14 02:24:33;;;;;;;3.28;1.30;;;18.60;57.90;;;;;;5079954;28;20522;-84
2022/01/14 02:26:59;;;;;;;2.45;1.40;;;18.50;57.90;;;;;;5079611;28;20183;-84
2022/01/14 02:29:24;;;;;;;1.95;1.27;;;18.60;57.90;;;;;;5076886;28;20619;-84
2022/01/14 02:31:50;;;;;;;3.40;1.15;;;18.60;58.00;;;;;;5076820;28;20552;-84
2022/01/14 02:34:18;;;;;;;6.35;1.70;;;18.60;58.00;;;;;;5076586;28;20233;-85
2022/01/14 02:36:45;;;;;;;4.68;1.40;;;18.50;58.30;;;;;;5076716;28;20165;-84
2022/01/14 02:39:11;;;;;;;2.90;1.40;;;18.50;58.10;;;;;;5076715;28;20172;-83
2022/01/14 02:41:38;;;;;;;3.50;1.80;;;18.50;58.00;;;;;;5076679;28;20172;-84
2022/01/14 02:44:08;;;;;;;3.13;1.45;;;18.50;58.00;;;;;;5076752;28;20157;-84
2022/01/14 02:46:38;;;;;;;2.67;1.38;;;18.50;57.90;;;;;;5076525;28;20184;-84
2022/01/14 02:49:04;;;;;;;2.92;1.60;;;18.60;57.90;;;;;;5077437;28;20149;-84
2022/01/14 02:51:31;;;;;;;3.17;1.48;;;18.50;58.30;;;;;;5075727;28;20492;-84
2022/01/14 02:53:59;;;;;;;3.97;1.20;;;18.50;58.20;;;;;;5075982;28;20185;-84
2022/01/14 02:56:29;;;;;;;4.20;1.60;;;18.50;58.00;;;;;;5076670;28;20157;-84
2022/01/14 02:58:56;;;;;;;3.90;1.55;;;18.50;58.30;;;;;;5076450;28;20156;-84
2022/01/14 03:01:24;;;;;;;4.35;1.50;;;18.50;58.30;;;;;;5076140;28;20228;-84
2022/01/14 03:03:55;;;;;;;2.88;1.30;;;18.50;58.30;;;;;;5076553;28;20236;-84
2022/01/14 03:06:20;;;;;;;3.13;1.38;;;18.50;58.20;;;;;;5076450;28;20382;-84
2022/01/14 03:08:46;;;;;;;2.50;1.30;;;18.50;58.20;;;;;;5075673;28;20522;-84
2022/01/14 03:11:15;;;;;;;3.92;1.70;;;18.50;58.30;;;;;;5076008;28;20153;-84
2022/01/14 03:13:41;;;;;;;3.88;1.48;;;18.50;58.30;;;;;;5076645;28;20149;-84
2022/01/14 03:16:06;;;;;;;4.10;1.48;;;18.50;58.10;;;;;;5075804;28;20669;-84
2022/01/14 03:18:41;;;;;;;2.30;1.35;;;18.50;58.20;;;;;;5075870;28;20153;-84
2022/01/14 03:21:10;;;;;;;2.75;1.40;;;18.50;58.30;;;;;;5076884;28;20218;-84
2022/01/14 03:23:43;;;;;;;2.53;1.40;;;18.50;58.30;;;;;;5076264;28;20160;-83
2022/01/14 03:26:09;;;;;;;3.05;1.45;;;18.40;58.30;;;;;;5076685;28;20585;-84
2022/01/14 03:28:36;;;;;;;2.60;1.40;;;18.40;58.20;;;;;;5076244;28;20157;-84
2022/01/14 03:31:02;;;;;;;4.60;1.42;;;18.40;58.30;;;;;;5075683;28;20149;-83
2022/01/14 03:33:27;;;;;;;3.15;1.17;;;18.40;58.30;;;;;;5075898;28;20544;-83
2022/01/14 03:35:53;;;;;;;2.33;1.40;;;18.40;58.20;;;;;;5093179;28;20190;-83
2022/01/14 03:38:19;;;;;;;3.20;1.45;;;18.50;58.30;;;;;;5077067;28;20558;-84
2022/01/14 03:40:45;;;;;;;1.48;1.10;;;18.40;58.20;;;;;;5077105;28;20161;-83
2022/01/14 03:43:11;;;;;;;2.78;1.42;;;18.50;58.20;;;;;;5078284;28;20161;-83
2022/01/14 03:45:38;;;;;;;3.92;1.45;;;18.40;58.20;;;;;;5078990;28;20539;-83
2022/01/14 03:48:06;;;;;;;2.90;1.65;;;18.40;58.20;;;;;;5078953;28;20146;-82
2022/01/14 03:50:32;;;;;;;1.98;1.33;;;18.40;58.30;;;;;;5078904;28;20151;-82
2022/01/14 03:52:58;;;;;;;1.83;1.20;;;18.40;58.30;;;;;;5075785;28;20599;-83
2022/01/14 03:55:24;;;;;;;2.17;1.58;;;18.40;58.20;;;;;;5075403;28;20163;-84
2022/01/14 03:57:49;;;;;;;2.80;1.30;;;18.40;58.30;;;;;;5075342;28;20172;-83
2022/01/14 04:00:16;;;;;;;2.25;1.30;;;18.40;58.40;;;;;;5075132;28;20560;-83
2022/01/14 04:02:41;;;;;;;2.47;1.08;;;18.30;58.20;;;;;;5075340;28;20184;-83
2022/01/14 04:05:07;;;;;;;1.52;1.10;;;18.40;58.40;;;;;;5095952;28;20192;-83
2022/01/14 04:07:33;;;;;;;2.67;1.33;;;18.40;58.30;;;;;;5079582;28;20172;-83
2022/01/14 04:09:59;;;;;;;2.45;1.25;;;18.40;58.30;;;;;;5081164;28;20153;-84
2022/01/14 04:12:45;;;;;;;3.05;1.27;;;18.40;58.30;;;;;;5082441;28;20141;-83
2022/01/14 04:17:51;;;;;;;2.53;1.30;;;18.40;58.40;;;;;;5086976;28;20152;-83
2022/01/14 04:20:16;;;;;;;2.50;1.20;;;18.40;58.30;;;;;;5084674;28;20176;-83
2022/01/14 04:22:42;;;;;;;2.55;1.45;;;18.40;58.40;;;;;;5087577;28;20161;-84
2022/01/14 04:25:08;;;;;;;1.80;1.15;;;18.40;58.40;;;;;;5084394;28;20181;-84
2022/01/14 04:27:34;;;;;;;4.22;1.45;;;18.40;58.50;;;;;;5079194;28;20500;-83
2022/01/14 04:29:59;;;;;;;3.58;1.35;;;18.40;58.50;;;;;;5079138;28;20149;-83
2022/01/14 04:32:25;;;;;;;3.17;1.58;;;18.40;58.50;;;;;;5079070;28;20157;-84
2022/01/14 04:34:51;;;;;;;3.05;1.42;;;18.40;58.40;;;;;;5079134;28;20180;-83
2022/01/14 04:37:16;;;;;;;2.92;1.30;;;18.40;58.50;;;;;;5078867;28;20238;-83
2022/01/14 04:39:42;;;;;;;3.22;1.20;;;18.40;58.50;;;;;;5078980;28;20153;-84
2022/01/14 04:42:08;;;;;;;2.08;1.00;;;18.30;58.40;;;;;;5079262;28;20200;-83
2022/01/14 04:44:33;;;;;;;2.03;1.20;;;18.40;58.50;;;;;;5078806;28;20227;-83
2022/01/14 04:47:12;;;;;;;2.72;1.23;;;18.30;58.60;;;;;;5078633;28;20257;-83
2022/01/14 04:49:38;;;;;;;3.08;1.60;;;18.40;58.50;;;;;;5080824;28;20530;-84
2022/01/14 04:52:06;;;;;;;2.05;1.40;;;18.40;58.60;;;;;;5095840;28;20218;-83
2022/01/14 04:54:31;;;;;;;2.67;1.30;;;18.30;58.50;;;;;;5079048;28;20164;-84
2022/01/14 04:56:57;;;;;;;2.35;1.25;;;18.30;58.40;;;;;;5078414;28;20260;-83
2022/01/14 04:59:23;;;;;;;2.83;1.48;;;18.40;58.60;;;;;;5078474;28;20173;-84
2022/01/14 05:01:49;;;;;;;2.63;1.40;;;18.30;58.30;;;;;;5078282;28;20590;-83
2022/01/14 05:04:16;;;;;;;2.35;1.20;;;18.20;58.40;;;;;;5095607;28;20161;-83
2022/01/14 05:06:46;;;;;;;1.58;1.00;;;18.30;58.30;;;;;;5078326;28;20180;-84
2022/01/14 05:09:22;;;;;;;2.03;1.45;;;18.40;58.20;;;;;;5078864;28;20255;-84
2022/01/14 05:11:54;;;;;;;3.17;1.42;;;18.40;58.40;;;;;;5079931;28;20294;-83
2022/01/14 05:14:20;;;;;;;2.65;1.17;;;18.30;58.50;;;;;;5078866;28;20145;-83
2022/01/14 05:16:46;;;;;;;2.42;1.30;;;18.30;58.40;;;;;;5077452;28;20163;-83
2022/01/14 05:19:11;;;;;;;2.88;1.20;;;18.30;58.30;;;;;;5078379;28;20167;-83
2022/01/14 05:21:37;;;;;;;4.25;1.40;;;18.30;57.70;;;;;;5078241;28;20236;-83
2022/01/14 05:24:03;;;;;;;2.65;1.20;;;18.40;57.60;;;;;;5096341;28;20153;-83
2022/01/14 05:26:29;;;;;;;2.63;1.35;;;18.50;57.20;;;;;;5078488;28;20184;-83
2022/01/14 05:28:55;;;;;;;1.80;1.17;;;18.40;57.20;;;;;;5078342;28;20161;-83
2022/01/14 05:31:20;;;;;;;3.88;1.20;;;18.40;57.30;;;;;;5078228;28;20165;-85
2022/01/14 05:33:47;;;;;;;2.03;1.20;;;18.50;57.20;;;;;;5078537;28;20157;-82
2022/01/14 05:36:13;;;;;;;1.20;0.90;;;18.50;57.20;;;;;;5078614;28;20663;-84
2022/01/14 05:38:38;;;;;;;2.47;1.10;;;18.50;57.20;;;;;;5078269;28;20193;-83
2022/01/14 05:41:04;;;;;;;1.90;0.98;;;18.60;56.90;;;;;;5078376;28;20149;-84
2022/01/14 05:43:30;;;;;;;2.58;1.10;;;18.60;56.90;;;;;;5078030;28;20227;-84
2022/01/14 05:45:55;;;;;;;1.65;1.00;;;18.70;56.90;;;;;;5078042;28;20180;-83
2022/01/14 05:48:21;;;;;;;1.55;1.10;;;18.60;56.80;;;;;;5077794;28;20168;-84
2022/01/14 05:50:46;;;;;;;3.45;1.23;;;18.60;56.80;;;;;;5077995;28;20157;-84
2022/01/14 05:53:12;;;;;;;1.83;0.80;;;18.60;56.30;;;;;;5077699;28;20159;-84
2022/01/14 05:55:38;;;;;;;2.58;1.20;;;18.70;56.60;;;;;;5078024;28;20148;-84
2022/01/14 05:58:03;;;;;;;1.77;1.10;;;18.70;56.40;;;;;;5077763;28;20276;-84
2022/01/14 06:00:29;;;;;;;1.80;1.20;;;18.70;56.50;;;;;;5077800;28;20283;-84
2022/01/14 06:02:55;;;;;;;3.60;1.15;;;18.70;56.40;;;;;;5077549;28;20168;-84
2022/01/14 06:05:20;;;;;;;2.22;1.00;;;18.70;56.20;;;;;;5077535;28;20258;-83
2022/01/14 06:07:46;;;;;;;0.98;0.85;;;18.70;56.20;;;;;;5077499;28;20152;-84
2022/01/14 06:10:12;;;;;;;2.15;1.00;;;18.70;56.20;;;;;;5077628;28;20157;-83
2022/01/14 06:12:38;;;;;;;2.10;1.30;;;18.80;56.10;;;;;;5095581;28;20153;-83
2022/01/14 06:15:04;;;;;;;2.15;1.00;;;18.80;56.10;;;;;;5077944;28;20172;-84
2022/01/14 06:17:30;;;;;;;1.77;1.38;;;18.80;56.60;;;;;;5077235;28;20165;-84
2022/01/14 06:19:55;;;;;;;1.27;0.80;;;18.90;56.00;;;;;;5077558;28;20586;-84
2022/01/14 06:22:21;;;;;;;2.05;1.00;;;18.80;55.70;;;;;;5077395;28;20164;-83
2022/01/14 06:24:49;;;;;;;2.35;1.05;;;18.90;55.70;;;;;;5077179;28;20168;-83
2022/01/14 06:27:14;;;;;;;2.30;1.15;;;18.80;55.50;;;;;;5077393;28;20235;-84
2022/01/14 06:29:40;;;;;;;3.35;1.20;;;18.90;55.70;;;;;;5076957;28;20611;-83
2022/01/14 06:32:06;;;;;;;1.17;0.98;;;18.90;55.60;;;;;;5076924;28;20168;-83
2022/01/14 06:34:32;;;;;;;2.15;1.08;;;19.00;55.60;;;;;;5077028;28;20574;-83
2022/01/14 06:36:59;;;;;;;1.77;0.90;;;18.90;55.60;;;;;;5077017;28;20188;-83
2022/01/14 06:39:25;;;;;;;1.70;0.98;;;18.90;55.30;;;;;;5077336;28;20172;-83
2022/01/14 06:41:50;;;;;;;2.30;1.13;;;19.00;55.30;;;;;;5076908;28;20169;-84
2022/01/14 06:44:17;;;;;;;1.42;1.02;;;19.00;55.40;;;;;;5076813;28;20161;-83
2022/01/14 06:46:43;;;;;;;2.05;1.15;;;19.00;55.30;;;;;;5076884;28;20207;-84
2022/01/14 06:49:08;;;;;;;1.88;0.98;;;18.90;55.20;;;;;;5095142;28;20152;-83
2022/01/14 06:51:34;;;;;;;1.55;1.10;;;19.00;55.10;;;;;;5076902;28;20149;-84
2022/01/14 06:54:00;;;;;;;1.00;0.82;;;19.00;55.10;;;;;;5076939;28;20161;-84
2022/01/14 06:56:27;;;;;;;1.40;0.90;;;19.00;55.20;;;;;;5077003;28;20157;-83
2022/01/14 06:58:53;;;;;;;1.48;0.80;;;19.00;55.10;;;;;;5076868;28;20176;-83
2022/01/14 07:01:18;;;;;;;1.25;0.85;;;19.00;55.10;;;;;;5076949;28;20224;-83
2022/01/14 07:03:44;;;;;;;1.48;0.93;;;19.00;54.90;;;;;;5076882;28;20192;-83
2022/01/14 07:06:10;;;;;;;1.05;0.70;;;19.00;55.00;;;;;;5094797;28;20265;-84
2022/01/14 07:08:36;;;;;;;0.95;0.85;;;19.10;54.80;;;;;;5076811;28;20157;-84
2022/01/14 07:11:02;;;;;;;1.95;1.00;;;19.00;54.80;;;;;;5076768;28;20244;-83
2022/01/14 07:13:28;;;;;;;2.42;0.80;;;19.10;54.80;;;;;;5076679;28;20149;-83
2022/01/14 07:15:53;;;;;;;1.15;0.90;;;19.10;54.60;;;;;;5076600;28;20256;-83
2022/01/14 07:18:19;;;;;;;1.70;0.82;;;19.10;54.70;;;;;;5076713;28;20578;-84
2022/01/14 07:20:45;;;;;;;1.73;1.10;;;19.10;54.70;;;;;;5076253;28;20173;-83
2022/01/14 07:23:10;;;;;;;1.13;0.80;;;19.10;54.70;;;;;;5076989;28;20181;-84
2022/01/14 07:25:38;;;;;;;1.38;1.00;;;19.10;54.50;;;;;;5076869;28;20230;-83
2022/01/14 07:28:04;;;;;;;2.08;1.00;;;19.10;54.60;;;;;;5076977;28;20171;-84
2022/01/14 07:30:30;;;;;;;1.48;0.90;;;19.10;54.60;;;;;;5076830;28;20164;-84
2022/01/14 07:32:56;;;;;;;1.55;1.00;;;19.20;54.50;;;;;;5075956;28;20165;-84
2022/01/14 07:35:21;;;;;;;2.38;1.10;;;19.10;54.40;;;;;;5092376;28;20649;-83
2022/01/14 07:37:47;;;;;;;1.63;1.00;;;19.10;54.40;;;;;;5075179;28;20157;-83
2022/01/14 07:40:13;;;;;;;1.30;1.05;;;19.10;54.30;;;;;;5075711;28;20161;-83
2022/01/14 07:42:39;;;;;;;1.25;0.80;;;19.10;54.30;;;;;;5092785;28;20172;-83
2022/01/14 07:45:05;;;;;;;1.48;0.82;;;19.10;54.20;;;;;;5093551;28;20184;-84
2022/01/14 07:47:31;;;;;;;1.52;0.85;;;19.10;54.10;;;;;;5075542;28;20492;-84
2022/01/14 07:49:56;;;;;;;1.73;0.70;;;19.20;54.20;;;;;;5075634;28;20156;-83
2022/01/14 07:52:22;;;;;;;1.25;0.90;;;19.20;54.20;;;;;;5075866;28;20167;-83
2022/01/14 07:54:48;;;;;;;1.08;0.90;;;19.20;54.10;;;;;;5075345;28;20585;-83
2022/01/14 07:57:13;;;;;;;1.77;0.90;;;19.20;53.90;;;;;;5075522;28;20156;-82
2022/01/14 07:59:40;;;;;;;2.15;1.00;;;19.20;53.90;;;;;;5075228;28;20272;-84
2022/01/14 08:02:06;;;;;;;1.63;0.70;;;19.10;53.90;;;;;;5075494;28;20172;-84
2022/01/14 08:04:34;;;;;;;1.38;0.80;;;19.20;54.60;;;;;;5075630;28;20567;-83
2022/01/14 08:07:08;;;;;;;1.13;0.75;;;19.20;54.00;;;;;;5075693;28;20196;-84
2022/01/14 08:09:35;;;;;;;1.15;0.80;;;19.20;53.70;;;;;;5076847;28;20517;-83
2022/01/14 08:12:02;;;;;;;0.95;0.73;;;19.20;53.90;;;;;;5075608;28;20167;-82
2022/01/14 08:14:27;;;;;;;1.58;0.98;;;19.20;53.90;;;;;;5075419;28;20540;-82
2022/01/14 08:16:53;;;;;;;1.35;0.60;;;19.20;53.80;;;;;;5075453;28;20168;-83
2022/01/14 08:19:19;;;;;;;2.58;0.80;;;19.20;53.60;;;;;;5093145;28;20214;-83
2022/01/14 08:21:44;;;;;;;1.38;0.90;;;19.20;53.60;;;;;;5075161;28;20152;-84
2022/01/14 08:24:10;;;;;;;1.20;0.70;;;19.20;53.50;;;;;;5091862;28;20245;-82
2022/01/14 08:26:37;;;;;;;1.13;0.80;;;19.20;53.40;;;;;;5075090;28;20228;-84
2022/01/14 08:29:02;;;;;;;1.30;0.85;;;19.20;53.40;;;;;;5091825;28;20160;-84
2022/01/14 08:31:28;;;;;;;3.08;0.80;;;19.20;53.40;;;;;;5075104;28;20232;-82
2022/01/14 08:33:54;;;;;;;1.08;0.80;;;19.20;53.40;;;;;;5077476;28;20172;-83
2022/01/14 08:36:23;;;;;;;0.82;0.65;;;19.20;53.30;;;;;;5077921;28;20161;-83
2022/01/14 08:38:51;;;;;;;1.23;0.80;;;19.30;52.80;;;;;;5078371;28;20199;-82
2022/01/14 08:41:18;;;;;;;1.15;0.60;;;19.30;53.00;;;;;;5078820;28;20168;-82
2022/01/14 08:43:46;;;;;;;1.85;0.80;;;19.30;52.90;;;;;;5093078;28;20203;-84
2022/01/14 08:46:13;;;;;;;1.67;0.82;;;19.30;52.90;;;;;;5074904;28;20208;-83
2022/01/14 08:48:39;;;;;;;1.40;0.90;;;19.40;52.70;;;;;;5092572;28;20588;-84
2022/01/14 08:51:06;;;;;;;1.20;0.82;;;19.30;53.10;;;;;;5096473;28;20164;-83
2022/01/14 08:53:32;;;;;;;0.82;0.70;;;19.30;52.80;;;;;;5079071;28;20149;-83
2022/01/14 08:55:58;;;;;;;0.85;0.70;;;19.30;52.90;;;;;;5078518;28;20214;-83
2022/01/14 08:58:23;;;;;;;1.85;0.70;;;19.30;52.60;;;;;;5078844;28;20188;-83
2022/01/14 09:00:49;;;;;;;0.80;0.73;;;19.30;52.80;;;;;;5078322;28;20243;-83
2022/01/14 09:03:15;;;;;;;0.80;0.65;;;19.30;52.50;;;;;;5079085;28;20627;-84
2022/01/14 09:05:41;;;;;;;0.65;0.60;;;19.40;52.60;;;;;;5079329;28;20625;-84
2022/01/14 09:08:06;;;;;;;1.13;0.75;;;19.40;52.60;;;;;;5078890;28;20547;-84
2022/01/14 09:10:32;;;;;;;1.92;0.80;;;19.30;52.40;;;;;;5078720;28;20247;-83
2022/01/14 09:12:58;;;;;;;1.08;0.80;;;19.40;52.70;;;;;;5078431;28;20168;-84
2022/01/14 09:15:23;;;;;;;1.58;0.88;;;19.40;52.90;;;;;;5079449;28;20169;-84
2022/01/14 09:17:49;;;;;;;1.38;0.70;;;19.40;52.60;;;;;;5078914;28;20153;-84
2022/01/14 09:20:15;;;;;;;1.27;0.73;;;19.30;52.50;;;;;;5061856;28;20259;-83
2022/01/14 09:22:48;;;;;;;1.27;0.85;;;19.40;52.10;;;;;;5078157;28;20200;-85
2022/01/14 09:25:13;;;;;;;1.27;0.77;;;19.40;52.00;;;;;;5079351;28;20278;-83
2022/01/14 09:27:39;;;;;;;2.80;1.38;;;19.40;52.00;;;;;;5095069;28;20615;-84
2022/01/14 09:30:05;;;;;;;1.23;1.00;;;19.40;51.90;;;;;;5096182;28;20157;-82
2022/01/14 09:32:31;;;;;;;3.55;1.00;;;19.50;52.00;;;;;;5078080;28;20157;-84
2022/01/14 09:34:57;;;;;;;1.92;0.80;;;19.40;50.20;;;;;;5078379;28;20171;-84
2022/01/14 09:37:23;;;;;;;2.08;0.90;;;19.40;51.00;;;;;;5094523;28;20188;-83
2022/01/14 09:39:48;;;;;;;1.27;0.82;;;19.40;50.30;;;;;;5077757;28;20171;-84
2022/01/14 09:42:14;;;;;;;1.42;0.82;;;19.40;51.00;;;;;;5077514;28;20153;-85
2022/01/14 09:44:41;;;;;;;2.10;0.90;;;19.40;51.20;;;;;;5077467;28;20203;-84
2022/01/14 09:47:07;;;;;;;1.58;0.85;;;19.50;51.60;;;;;;5077402;28;20215;-84
2022/01/14 09:49:32;;;;;;;1.70;0.80;;;19.50;51.10;;;;;;5078090;28;20515;-84
2022/01/14 09:51:58;;;;;;;1.00;0.80;;;19.50;51.50;;;;;;5077700;28;20160;-83
2022/01/14 09:54:24;;;;;;;1.05;0.80;;;19.50;51.50;;;;;;5077904;28;20710;-83
2022/01/14 09:56:49;;;;;;;0.63;0.60;;;19.50;51.80;;;;;;5062370;28;20169;-84
2022/01/14 09:59:18;;;;;;;1.98;0.90;;;19.50;51.70;;;;;;5110166;28;20618;-84
2022/01/14 10:01:45;;;;;;;2.30;0.80;;;19.50;51.10;;;;;;5103638;28;20218;-84
2022/01/14 10:04:19;;;;;;;1.45;0.70;;;19.50;51.70;;;;;;5122476;28;20156;-84
2022/01/14 10:06:49;;;;;;;0.90;0.57;;;19.50;51.30;;;;;;5081955;28;20179;-84
2022/01/14 10:09:21;;;;;;;1.10;0.68;;;19.50;50.60;;;;;;5099605;28;20151;-84
2022/01/14 10:12:17;;;;;;;0.60;0.60;;;19.50;51.10;;;;;;5082076;28;20153;-84
2022/01/14 10:14:56;;;;;;;1.05;0.77;;;19.50;50.70;;;;;;5080198;28;20171;-84
2022/01/14 10:17:21;;;;;;;0.93;0.70;;;19.50;51.80;;;;;;5097360;28;20327;-83
2022/01/14 10:19:48;;;;;;;1.75;0.90;;;19.50;50.80;;;;;;5080413;28;20174;-85
2022/01/14 10:22:31;;;;;;;1.15;0.70;;;19.50;50.90;;;;;;5115364;28;20152;-85
2022/01/14 10:25:06;;;;;;;1.67;0.73;;;19.60;51.10;;;;;;5080965;28;20180;-84
2022/01/14 10:27:36;;;;;;;1.15;0.60;;;19.50;51.20;;;;;;5064629;28;20219;-85
2022/01/14 10:30:16;;;;;;;1.35;0.88;;;19.50;50.90;;;;;;5064207;28;20426;-84
2022/01/14 10:32:43;;;;;;;1.25;0.80;;;19.50;50.70;;;;;;5115293;28;20152;-84
2022/01/14 10:35:12;;;;;;;1.45;0.85;;;19.60;51.50;;;;;;5097261;28;20656;-84
2022/01/14 10:37:38;;;;;;;1.20;0.90;;;19.50;50.30;;;;;;5080674;28;20558;-84
2022/01/14 10:40:05;;;;;;;1.17;0.80;;;19.50;50.70;;;;;;5097168;28;20152;-84
2022/01/14 10:42:34;;;;;;;1.13;0.63;;;19.50;51.40;;;;;;5080894;28;20250;-83
2022/01/14 10:45:18;;;;;;;1.48;0.50;;;19.50;50.50;;;;;;5064232;28;20168;-82
2022/01/14 10:48:05;;;;;;;1.13;0.70;;;19.50;50.20;;;;;;5081343;28;20179;-83
2022/01/14 10:50:36;;;;;;;1.10;0.73;;;19.60;50.70;;;;;;5097200;28;20627;-84
2022/01/14 10:53:07;;;;;;;1.77;0.70;;;19.50;51.80;;;;;;5080335;28;20262;-83
2022/01/14 10:55:43;;;;;;;0.93;0.70;;;19.50;50.90;;;;;;5081012;28;20178;-83
2022/01/14 10:58:24;;;;;;;1.88;0.90;;;19.50;50.50;;;;;;5081621;28;20613;-84
2022/01/14 11:00:57;;;;;;;1.15;0.70;;;19.60;51.00;;;;;;5086484;28;20215;-84
2022/01/14 11:03:37;;;;;;;0.75;0.60;;;19.60;50.60;;;;;;5113714;28;20171;-83
2022/01/14 11:06:31;;;;;;;1.58;0.65;;;19.60;50.00;;;;;;5113235;28;20192;-84
2022/01/14 11:09:00;;;;;;;1.23;0.60;;;19.60;50.20;;;;;;5113182;28;20156;-83
2022/01/14 11:11:29;;;;;;;0.90;0.60;;;19.60;50.10;;;;;;5096453;28;20608;-83
2022/01/14 11:13:54;;;;;;;1.33;0.80;;;19.60;49.60;;;;;;5112968;28;20164;-83
2022/01/14 11:16:20;;;;;;;1.40;0.85;;;19.60;49.80;;;;;;5113267;28;20234;-84
2022/01/14 11:18:46;;;;;;;1.05;0.50;;;19.60;49.90;;;;;;5114559;28;20677;-84
2022/01/14 11:23:58;;;;;;;1.25;0.63;;;19.60;49.20;;;;;;5114377;28;20235;-84
2022/01/14 11:26:27;;;;;;;1.42;0.85;;;19.60;50.80;;;;;;5116405;28;20607;-84
2022/01/14 11:28:54;;;;;;;0.75;0.50;;;19.60;50.10;;;;;;5116530;28;20152;-85
2022/01/14 11:31:35;;;;;;;0.63;0.60;;;19.50;50.30;;;;;;5097292;28;20212;-85
2022/01/14 11:34:02;;;;;;;0.85;0.65;;;19.60;50.50;;;;;;5116434;28;20151;-85
2022/01/14 11:36:58;;;;;;;1.20;0.80;;;19.60;50.50;;;;;;5116937;28;20148;-85
2022/01/14 11:39:26;;;;;;;1.48;0.80;;;19.50;50.40;;;;;;5114466;28;20577;-85
2022/01/14 11:42:04;;;;;;;0.95;0.70;;;19.50;50.20;;;;;;5113083;28;20179;-85
2022/01/14 11:44:55;;;;;;;1.05;0.60;;;19.50;48.90;;;;;;5112901;28;20156;-85
2022/01/14 11:47:48;;;;;;;0.95;0.70;;;19.50;49.70;;;;;;5114697;28;20167;-83
2022/01/14 11:50:46;;;;;;;0.80;0.65;;;19.60;49.60;;;;;;5113292;28;20576;-84
2022/01/14 11:53:39;;;;;;;1.45;0.70;;;19.60;49.40;;;;;;5113180;28;20148;-83
2022/01/14 11:56:07;;;;;;;0.75;0.70;;;19.50;50.40;;;;;;5112582;28;20180;-84
2022/01/14 11:58:32;;;;;;;1.13;0.65;;;19.50;50.10;;;;;;5096373;28;20595;-83
2022/01/14 12:00:58;;;;;;;0.98;0.68;;;19.50;50.80;;;;;;5104797;28;20224;-83
2022/01/14 12:03:26;;;;;;;1.30;0.80;;;19.50;50.60;;;;;;5079450;28;20187;-83
2022/01/14 12:06:05;;;;;;;0.88;0.60;;;19.50;50.60;;;;;;5079750;28;20207;-83
2022/01/14 12:08:33;;;;;;;0.80;0.50;;;19.40;50.30;;;;;;5051660;28;20205;-83
2022/01/14 12:11:16;;;;;;;2.15;0.82;;;19.40;49.90;;;;;;5052404;28;20177;-83
2022/01/14 12:13:53;;;;;;;0.93;0.60;;;19.50;49.60;;;;;;5051971;28;20182;-84
2022/01/14 12:16:38;;;;;;;1.42;0.77;;;19.50;49.20;;;;;;5054882;28;20162;-83
2022/01/14 12:19:07;;;;;;;1.10;0.70;;;19.60;49.00;;;;;;5080881;28;20186;-84
2022/01/14 12:21:55;;;;;;;1.40;0.70;;;19.50;49.70;;;;;;5079928;28;20165;-84
2022/01/14 12:24:30;;;;;;;1.00;0.75;;;19.50;50.10;;;;;;5061119;28;20185;-85
2022/01/14 12:27:16;;;;;;;1.42;0.60;;;19.50;50.10;;;;;;5080341;28;20197;-85
2022/01/14 12:29:47;;;;;;;0.80;0.60;;;19.40;49.30;;;;;;5063866;28;20767;-85
2022/01/14 12:32:19;;;;;;;1.17;0.70;;;19.40;49.70;;;;;;5082454;28;20162;-84
2022/01/14 12:35:06;;;;;;;1.00;0.60;;;19.50;49.50;;;;;;5067370;28;20178;-83
2022/01/14 12:37:34;;;;;;;0.70;0.68;;;19.40;50.50;;;;;;5064860;28;20177;-85
2022/01/14 12:40:09;;;;;;;1.23;0.60;;;19.40;49.50;;;;;;5128719;27;20172;-85
2022/01/14 12:42:36;;;;;;;1.02;0.70;;;19.40;50.10;;;;;;5095918;28;20158;-85
2022/01/14 12:45:03;;;;;;;0.50;0.50;;;19.40;49.80;;;;;;5112678;28;20156;-83
2022/01/14 12:47:34;;;;;;;1.17;0.73;;;19.40;50.70;;;;;;5095499;28;20156;-84
2022/01/14 12:50:03;;;;;;;1.88;0.80;;;19.40;50.30;;;;;;5102224;28;20156;-84
2022/01/14 12:52:37;;;;;;;0.60;0.60;;;19.40;50.90;;;;;;5099924;28;20535;-82
2022/01/14 12:55:05;;;;;;;1.30;0.70;;;19.40;50.40;;;;;;5099956;28;20148;-83
2022/01/14 12:57:30;;;;;;;1.65;0.77;;;19.30;50.70;;;;;;5082360;28;20167;-85
2022/01/14 12:59:56;;;;;;;1.30;0.75;;;19.30;49.50;;;;;;5081727;28;20619;-84
2022/01/14 13:02:25;;;;;;;1.13;0.70;;;19.40;49.40;;;;;;5099066;28;20250;-83
2022/01/14 13:05:05;;;;;;;0.68;0.60;;;19.40;49.50;;;;;;5098811;28;20607;-83
2022/01/14 13:07:31;;;;;;;1.15;0.60;;;19.40;50.50;;;;;;5098730;28;20152;-83
2022/01/14 13:09:57;;;;;;;0.65;0.50;;;19.40;50.00;;;;;;5082090;28;20160;-83